createdAt,value
2019-03-01T00:01:24.913Z,9.50
2019-03-01T00:04:01.038Z,9.50
2019-03-01T00:06:36.549Z,9.30
2019-03-01T00:09:31.893Z,9.30
2019-03-01T00:12:38.609Z,9.30
2019-03-01T00:15:29.474Z,9.30
2019-03-01T00:18:56.652Z,9.30
2019-03-01T00:22:01.260Z,9.30
2019-03-01T00:24:58.785Z,9.30
2019-03-01T00:28:16.454Z,9.20
2019-03-01T00:31:21.975Z,9.20
2019-03-01T00:34:32.936Z,9.20
2019-03-01T00:37:29.350Z,9.20
2019-03-01T00:40:12.280Z,9.20
2019-03-01T00:43:16.512Z,9.20
2019-03-01T00:45:47.826Z,9.10
2019-03-01T00:48:18.900Z,9.00
2019-03-01T00:50:50.162Z,9.00
2019-03-01T00:53:21.216Z,9.00
2019-03-01T00:56:03.988Z,9.00
2019-03-01T00:58:35.036Z,9.00
2019-03-01T01:01:06.356Z,9.10
2019-03-01T01:03:37.416Z,9.10
2019-03-01T01:06:09.048Z,9.00
2019-03-01T01:08:40.093Z,9.00
2019-03-01T01:11:11.348Z,9.00
2019-03-01T01:13:42.465Z,9.00
2019-03-01T01:16:13.852Z,9.10
2019-03-01T01:18:44.881Z,9.20
2019-03-01T01:21:16.233Z,9.10
2019-03-01T01:23:47.272Z,9.20
2019-03-01T01:26:18.516Z,9.20
2019-03-01T01:28:49.577Z,9.20
2019-03-01T01:31:20.810Z,9.30
2019-03-01T01:33:51.848Z,9.40
2019-03-01T01:36:23.202Z,9.40
2019-03-01T01:38:54.242Z,9.30
2019-03-01T01:41:25.492Z,9.40
2019-03-01T01:43:56.552Z,9.30
2019-03-01T01:46:27.789Z,9.30
2019-03-01T01:48:58.881Z,9.40
2019-03-01T01:51:30.173Z,9.30
2019-03-01T01:54:01.230Z,9.30
2019-03-01T01:56:32.432Z,9.30
2019-03-01T01:59:03.494Z,9.30
2019-03-01T02:01:34.796Z,9.30
2019-03-01T02:04:05.870Z,9.30
2019-03-01T02:06:37.244Z,9.20
2019-03-01T02:09:23.664Z,9.20
2019-03-01T02:11:55.407Z,9.20
2019-03-01T02:14:26.465Z,9.20
2019-03-01T02:16:58.868Z,9.20
2019-03-01T02:19:29.928Z,9.20
2019-03-01T02:22:01.226Z,9.10
2019-03-01T02:24:32.410Z,9.20
2019-03-01T02:27:29.821Z,9.10
2019-03-01T02:30:02.264Z,9.10
2019-03-01T02:32:42.566Z,9.10
2019-03-01T02:35:15.612Z,9.10
2019-03-01T02:37:46.929Z,9.10
2019-03-01T02:40:18.081Z,9.10
2019-03-01T02:42:49.394Z,9.00
2019-03-01T02:45:21.817Z,9.00
2019-03-01T02:47:53.211Z,9.00
2019-03-01T02:50:24.317Z,9.00
2019-03-01T02:52:55.609Z,9.00
2019-03-01T02:55:26.655Z,8.90
2019-03-01T02:57:57.994Z,9.00
2019-03-01T03:00:29.376Z,9.00
2019-03-01T03:03:00.817Z,9.10
2019-03-01T03:05:32.865Z,9.10
2019-03-01T03:08:08.524Z,9.20
2019-03-01T03:10:39.699Z,9.20
2019-03-01T03:13:11.116Z,9.20
2019-03-01T03:15:47.081Z,9.20
2019-03-01T03:18:18.420Z,9.20
2019-03-01T03:20:49.491Z,9.20
2019-03-01T03:23:20.713Z,9.10
2019-03-01T03:25:51.780Z,9.10
2019-03-01T03:28:23.206Z,9.10
2019-03-01T03:30:54.388Z,9.10
2019-03-01T03:33:25.801Z,9.20
2019-03-01T03:35:56.886Z,9.10
2019-03-01T03:38:28.198Z,9.10
2019-03-01T03:40:59.440Z,9.10
2019-03-01T03:43:30.693Z,9.00
2019-03-01T03:46:01.783Z,8.90
2019-03-01T03:48:33.078Z,8.80
2019-03-01T03:51:04.139Z,8.70
2019-03-01T03:53:35.573Z,8.70
2019-03-01T03:56:06.616Z,8.60
2019-03-01T03:58:37.788Z,8.70
2019-03-01T04:01:08.827Z,8.60
2019-03-01T04:03:40.008Z,8.60
2019-03-01T04:06:30.109Z,8.60
2019-03-01T04:09:01.387Z,8.70
2019-03-01T04:11:34.038Z,8.70
2019-03-01T04:14:05.190Z,8.60
2019-03-01T04:16:36.253Z,8.60
2019-03-01T04:19:07.602Z,8.60
2019-03-01T04:21:38.665Z,8.60
2019-03-01T04:24:09.995Z,8.60
2019-03-01T04:26:41.083Z,8.60
2019-03-01T04:29:12.390Z,8.60
2019-03-01T04:31:43.567Z,8.50
2019-03-01T04:34:14.980Z,8.50
2019-03-01T04:36:46.033Z,8.50
2019-03-01T04:39:17.272Z,8.50
2019-03-01T04:41:48.348Z,8.60
2019-03-01T04:44:19.666Z,8.60
2019-03-01T04:46:50.708Z,8.50
2019-03-01T04:49:22.414Z,8.60
2019-03-01T04:51:53.628Z,8.60
2019-03-01T04:54:24.960Z,8.60
2019-03-01T04:56:56.248Z,8.60
2019-03-01T04:59:27.398Z,8.60
2019-03-01T05:01:58.431Z,8.60
2019-03-01T05:04:29.844Z,8.60
2019-03-01T05:07:00.911Z,8.60
2019-03-01T05:09:32.050Z,8.70
2019-03-01T05:12:03.127Z,8.70
2019-03-01T05:14:34.276Z,8.70
2019-03-01T05:17:05.381Z,8.80
2019-03-01T05:19:36.818Z,8.70
2019-03-01T05:22:07.946Z,8.80
2019-03-01T05:24:39.208Z,8.70
2019-03-01T05:27:10.276Z,8.70
2019-03-01T05:29:41.503Z,8.70
2019-03-01T05:32:12.559Z,8.60
2019-03-01T05:34:43.811Z,8.60
2019-03-01T05:37:14.885Z,8.40
2019-03-01T05:39:46.138Z,8.30
2019-03-01T05:42:17.222Z,8.30
2019-03-01T05:44:48.488Z,8.20
2019-03-01T05:47:19.569Z,8.10
2019-03-01T05:49:50.966Z,8.00
2019-03-01T05:52:22.045Z,8.10
2019-03-01T05:54:53.372Z,8.20
2019-03-01T05:57:24.417Z,8.20
2019-03-01T05:59:55.760Z,8.20
2019-03-01T06:02:42.740Z,8.20
2019-03-01T06:05:20.370Z,8.20
2019-03-01T06:08:29.189Z,8.20
2019-03-01T06:11:15.085Z,8.20
2019-03-01T06:14:32.192Z,8.20
2019-03-01T06:17:24.956Z,8.10
2019-03-01T06:20:09.683Z,8.10
2019-03-01T06:23:03.702Z,8.10
2019-03-01T06:26:06.264Z,8.10
2019-03-01T06:29:39.792Z,8.20
2019-03-01T06:32:56.913Z,8.10
2019-03-01T06:35:56.270Z,8.10
2019-03-01T06:39:20.978Z,8.20
2019-03-01T06:42:45.246Z,8.20
2019-03-01T06:46:09.346Z,8.10
2019-03-01T06:48:59.454Z,8.20
2019-03-01T06:51:33.102Z,8.20
2019-03-01T06:54:04.539Z,8.20
2019-03-01T06:56:35.596Z,8.30
2019-03-01T06:59:08.175Z,8.30
2019-03-01T07:01:42.408Z,8.10
2019-03-01T07:04:22.545Z,8.10
2019-03-01T07:06:53.608Z,8.10
2019-03-01T07:09:25.095Z,8.00
2019-03-01T07:11:56.194Z,8.00
2019-03-01T07:14:27.524Z,7.90
2019-03-01T07:16:58.564Z,7.80
2019-03-01T07:19:29.922Z,7.80
2019-03-01T07:22:00.978Z,7.80
2019-03-01T07:24:32.302Z,7.80
2019-03-01T07:27:03.353Z,7.70
2019-03-01T07:29:34.627Z,7.70
2019-03-01T07:32:05.890Z,7.60
2019-03-01T07:34:37.146Z,7.50
2019-03-01T07:37:08.368Z,7.40
2019-03-01T07:39:39.756Z,7.40
2019-03-01T07:42:10.934Z,7.40
2019-03-01T07:44:42.285Z,7.40
2019-03-01T07:47:13.345Z,7.30
2019-03-01T07:49:44.595Z,7.30
2019-03-01T07:52:15.722Z,7.20
2019-03-01T07:54:49.522Z,7.20
2019-03-01T07:57:19.802Z,7.20
2019-03-01T07:59:51.106Z,7.20
2019-03-01T08:02:22.263Z,7.30
2019-03-01T08:04:53.642Z,7.30
2019-03-01T08:07:24.716Z,7.30
2019-03-01T08:09:56.189Z,7.20
2019-03-01T08:12:27.216Z,7.10
2019-03-01T08:14:58.514Z,7.20
2019-03-01T08:17:31.695Z,7.10
2019-03-01T08:20:02.369Z,7.20
2019-03-01T08:22:33.472Z,7.20
2019-03-01T08:25:05.212Z,7.20
2019-03-01T08:27:36.307Z,7.20
2019-03-01T08:30:10.470Z,7.20
2019-03-01T08:32:42.151Z,7.20
2019-03-01T08:35:13.997Z,7.00
2019-03-01T08:37:45.374Z,7.00
2019-03-01T08:40:17.409Z,7.00
2019-03-01T08:42:48.605Z,7.00
2019-03-01T08:45:19.933Z,6.90
2019-03-01T08:47:50.998Z,6.80
2019-03-01T08:50:22.396Z,6.90
2019-03-01T08:52:53.496Z,6.80
2019-03-01T08:55:24.901Z,6.80
2019-03-01T08:57:59.651Z,6.80
2019-03-01T09:00:30.464Z,6.90
2019-03-01T09:03:11.688Z,6.70
2019-03-01T09:05:43.358Z,6.70
2019-03-01T09:08:14.416Z,6.70
2019-03-01T09:10:45.689Z,6.60
2019-03-01T09:13:16.748Z,6.70
2019-03-01T09:15:49.403Z,6.80
2019-03-01T09:18:20.843Z,6.90
2019-03-01T09:20:52.308Z,6.90
2019-03-01T09:23:34.810Z,7.00
2019-03-01T09:26:06.166Z,7.00
2019-03-01T09:28:39.569Z,7.00
2019-03-01T09:31:10.196Z,6.90
2019-03-01T09:33:42.417Z,6.90
2019-03-01T09:36:20.528Z,6.90
2019-03-01T09:38:50.405Z,6.80
2019-03-01T09:41:21.624Z,6.70
2019-03-01T09:43:52.751Z,6.60
2019-03-01T09:46:28.093Z,6.70
2019-03-01T09:48:56.975Z,6.70
2019-03-01T09:51:28.381Z,6.60
2019-03-01T09:53:59.511Z,6.80
2019-03-01T09:56:30.762Z,6.80
2019-03-01T09:59:01.879Z,6.90
2019-03-01T10:01:33.356Z,7.00
2019-03-01T10:04:04.415Z,7.20
2019-03-01T10:06:38.287Z,7.30
2019-03-01T10:09:11.814Z,7.40
2019-03-01T10:11:43.766Z,7.40
2019-03-01T10:14:14.836Z,7.50
2019-03-01T10:16:46.181Z,7.60
2019-03-01T10:19:17.308Z,7.60
2019-03-01T10:21:49.479Z,7.60
2019-03-01T10:24:20.518Z,7.70
2019-03-01T10:26:51.780Z,7.80
2019-03-01T10:29:22.829Z,7.80
2019-03-01T10:31:54.161Z,7.90
2019-03-01T10:34:25.244Z,7.80
2019-03-01T10:36:56.648Z,7.80
2019-03-01T10:39:27.734Z,7.90
2019-03-01T10:41:59.020Z,7.70
2019-03-01T10:44:30.081Z,7.60
2019-03-01T10:47:01.239Z,7.70
2019-03-01T10:49:32.290Z,7.70
2019-03-01T10:52:03.593Z,7.70
2019-03-01T10:54:34.654Z,7.70
2019-03-01T10:57:06.028Z,7.70
2019-03-01T10:59:37.431Z,7.70
2019-03-01T11:02:08.744Z,7.60
2019-03-01T11:04:39.832Z,7.80
2019-03-01T11:07:11.414Z,7.80
2019-03-01T11:09:42.624Z,7.80
2019-03-01T11:12:14.220Z,7.80
2019-03-01T11:14:45.642Z,7.70
2019-03-01T11:17:16.944Z,7.80
2019-03-01T11:19:48.022Z,7.80
2019-03-01T11:22:19.416Z,7.70
2019-03-01T11:24:50.774Z,7.70
2019-03-01T11:27:22.104Z,7.60
2019-03-01T11:29:53.197Z,7.70
2019-03-01T11:32:43.552Z,7.70
2019-03-01T11:35:14.963Z,7.70
2019-03-01T11:37:46.266Z,7.70
2019-03-01T11:40:26.575Z,7.70
2019-03-01T11:42:58.376Z,7.60
2019-03-01T11:45:29.421Z,7.70
2019-03-01T11:48:00.801Z,7.80
2019-03-01T11:50:33.233Z,7.90
2019-03-01T11:53:04.635Z,7.90
2019-03-01T11:55:35.887Z,7.90
2019-03-01T11:58:07.184Z,7.90
2019-03-01T12:00:38.314Z,8.00
2019-03-01T12:03:21.831Z,8.10
2019-03-01T12:05:52.888Z,7.90
2019-03-01T12:08:24.262Z,7.80
2019-03-01T12:10:56.304Z,7.80
2019-03-01T12:13:27.668Z,7.80
2019-03-01T12:15:58.843Z,7.80
2019-03-01T12:18:30.148Z,7.80
2019-03-01T12:21:01.198Z,7.90
2019-03-01T12:23:32.660Z,7.80
2019-03-01T12:26:03.711Z,7.90
2019-03-01T12:28:34.949Z,7.90
2019-03-01T12:31:05.982Z,7.90
2019-03-01T12:33:37.436Z,8.00
2019-03-01T12:36:08.488Z,8.10
2019-03-01T12:38:39.872Z,8.10
2019-03-01T12:41:11.081Z,7.90
2019-03-01T12:43:42.432Z,7.80
2019-03-01T12:46:13.481Z,7.80
2019-03-01T12:48:45.146Z,7.80
2019-03-01T12:51:16.189Z,7.90
2019-03-01T12:53:47.722Z,8.00
2019-03-01T12:56:18.754Z,8.10
2019-03-01T12:58:50.008Z,8.00
2019-03-01T13:01:21.073Z,8.10
2019-03-01T13:03:52.259Z,8.20
2019-03-01T13:06:23.391Z,8.30
2019-03-01T13:08:54.712Z,8.40
2019-03-01T13:11:25.739Z,8.30
2019-03-01T13:13:57.080Z,8.30
2019-03-01T13:16:29.198Z,8.40
2019-03-01T13:19:00.630Z,8.50
2019-03-01T13:21:31.866Z,8.30
2019-03-01T13:24:03.222Z,8.20
2019-03-01T13:26:34.255Z,8.20
2019-03-01T13:29:05.702Z,8.10
2019-03-01T13:31:36.831Z,7.90
2019-03-01T13:34:10.591Z,8.00
2019-03-01T13:36:44.893Z,7.90
2019-03-01T13:39:16.229Z,7.90
2019-03-01T13:41:48.183Z,7.80
2019-03-01T13:44:20.654Z,7.70
2019-03-01T13:46:51.712Z,7.70
2019-03-01T13:49:23.181Z,7.60
2019-03-01T13:51:54.324Z,7.50
2019-03-01T13:54:25.529Z,7.40
2019-03-01T13:56:56.670Z,7.40
2019-03-01T13:59:29.059Z,7.40
2019-03-01T14:02:04.262Z,7.40
2019-03-01T14:04:36.588Z,7.40
2019-03-01T14:07:08.889Z,7.40
2019-03-01T14:09:40.160Z,7.40
2019-03-01T14:12:11.208Z,7.40
2019-03-01T14:14:42.447Z,7.40
2019-03-01T14:17:13.480Z,7.40
2019-03-01T14:19:44.882Z,7.40
2019-03-01T14:22:15.932Z,7.30
2019-03-01T14:24:47.286Z,7.30
2019-03-01T14:27:18.429Z,7.30
2019-03-01T14:29:53.414Z,7.30
2019-03-01T14:32:41.679Z,7.30
2019-03-01T14:35:13.049Z,7.30
2019-03-01T14:37:44.093Z,7.40
2019-03-01T14:40:19.168Z,7.30
2019-03-01T14:42:49.790Z,7.30
2019-03-01T14:45:22.876Z,7.40
2019-03-01T14:47:53.973Z,7.30
2019-03-01T14:50:25.396Z,7.30
2019-03-01T14:52:58.517Z,7.30
2019-03-01T14:55:32.832Z,7.30
2019-03-01T14:58:07.423Z,7.40
2019-03-01T15:00:54.689Z,7.50
2019-03-01T15:03:40.055Z,7.50
2019-03-01T15:06:11.381Z,7.50
2019-03-01T15:08:44.212Z,7.40
2019-03-01T15:11:21.195Z,7.50
2019-03-01T15:13:53.759Z,7.50
2019-03-01T15:16:25.320Z,7.70
2019-03-01T15:18:56.453Z,7.70
2019-03-01T15:21:27.656Z,7.70
2019-03-01T15:24:00.127Z,7.70
2019-03-01T15:26:31.855Z,7.70
2019-03-01T15:29:03.041Z,7.50
2019-03-01T15:31:34.456Z,7.50
2019-03-01T15:34:05.510Z,7.40
2019-03-01T15:36:36.974Z,7.40
2019-03-01T15:39:08.513Z,7.40
2019-03-01T15:41:42.122Z,7.40
2019-03-01T15:44:12.659Z,7.40
2019-03-01T15:46:46.425Z,7.30
2019-03-01T15:49:16.964Z,7.50
2019-03-01T15:51:48.213Z,7.50
2019-03-01T15:54:19.348Z,7.50
2019-03-01T15:56:50.905Z,7.40
2019-03-01T15:59:22.098Z,7.40
2019-03-01T16:01:53.396Z,7.30
2019-03-01T16:04:24.492Z,7.40
2019-03-01T16:06:56.927Z,7.30
2019-03-01T16:09:28.264Z,7.30
2019-03-01T16:11:59.838Z,7.30
2019-03-01T16:14:30.930Z,7.20
2019-03-01T16:17:02.422Z,7.30
2019-03-01T16:19:33.590Z,7.20
2019-03-01T16:22:04.922Z,7.10
2019-03-01T16:24:36.206Z,7.00
2019-03-01T16:27:08.690Z,7.00
2019-03-01T16:29:42.188Z,7.00
2019-03-01T16:32:13.710Z,6.90
2019-03-01T16:34:46.030Z,6.90
2019-03-01T16:37:17.324Z,6.70
2019-03-01T16:39:48.517Z,6.70
2019-03-01T16:42:19.856Z,6.70
2019-03-01T16:44:50.946Z,6.70
2019-03-01T16:47:23.327Z,6.70
2019-03-01T16:49:54.706Z,6.70
2019-03-01T16:52:26.534Z,6.70
2019-03-01T16:54:58.788Z,6.70
2019-03-01T16:57:30.060Z,6.60
2019-03-01T17:00:01.126Z,6.70
2019-03-01T17:02:34.088Z,6.70
2019-03-01T17:05:05.616Z,6.70
2019-03-01T17:07:37.002Z,6.70
2019-03-01T17:10:09.952Z,6.70
2019-03-01T17:12:41.164Z,6.70
2019-03-01T17:15:17.818Z,6.80
2019-03-01T17:17:49.258Z,6.80
2019-03-01T17:20:20.443Z,6.70
2019-03-01T17:22:51.623Z,6.70
2019-03-01T17:25:23.490Z,6.70
2019-03-01T17:27:55.540Z,6.80
2019-03-01T17:30:26.692Z,6.70
2019-03-01T17:32:57.969Z,6.70
2019-03-01T17:35:29.012Z,6.70
2019-03-01T17:38:00.305Z,6.70
2019-03-01T17:40:32.415Z,6.60
2019-03-01T17:43:04.489Z,6.60
2019-03-01T17:45:35.520Z,6.60
2019-03-01T17:48:06.984Z,6.70
2019-03-01T17:50:38.332Z,6.80
2019-03-01T17:53:10.401Z,6.80
2019-03-01T17:55:42.892Z,6.80
2019-03-01T17:58:14.094Z,6.80
2019-03-01T18:00:47.619Z,6.80
2019-03-01T18:03:18.460Z,6.80
2019-03-01T18:05:49.516Z,6.80
2019-03-01T18:08:20.862Z,6.80
2019-03-01T18:10:51.928Z,6.80
2019-03-01T18:13:23.085Z,6.80
2019-03-01T18:15:54.138Z,6.80
2019-03-01T18:18:25.390Z,6.80
2019-03-01T18:20:56.490Z,6.70
2019-03-01T18:23:27.835Z,6.80
2019-03-01T18:25:59.582Z,6.80
2019-03-01T18:28:31.817Z,6.80
2019-03-01T18:31:02.859Z,6.80
2019-03-01T18:33:34.507Z,6.80
2019-03-01T18:36:05.617Z,6.80
2019-03-01T18:38:36.949Z,6.80
2019-03-01T18:41:08.086Z,6.80
2019-03-01T18:43:39.432Z,6.80
2019-03-01T18:46:10.539Z,6.70
2019-03-01T18:48:43.933Z,6.80
2019-03-01T18:51:14.719Z,6.80
2019-03-01T18:53:45.921Z,6.70
2019-03-01T18:56:18.054Z,6.70
2019-03-01T18:58:49.826Z,6.70
2019-03-01T19:01:21.112Z,6.70
2019-03-01T19:03:52.432Z,6.70
2019-03-01T19:06:23.558Z,6.80
2019-03-01T19:08:54.875Z,6.70
2019-03-01T19:11:25.916Z,6.70
2019-03-01T19:13:58.493Z,6.70
2019-03-01T19:16:29.937Z,6.70
2019-03-01T19:19:01.252Z,6.70
2019-03-01T19:21:32.364Z,6.70
2019-03-01T19:24:04.693Z,6.80
2019-03-01T19:26:37.359Z,6.80
2019-03-01T19:29:08.972Z,6.80
2019-03-01T19:31:40.061Z,6.70
2019-03-01T19:34:13.102Z,6.70
2019-03-01T19:36:44.255Z,6.70
2019-03-01T19:39:20.444Z,6.70
2019-03-01T19:41:54.531Z,6.70
2019-03-01T19:44:29.066Z,6.70
2019-03-01T19:47:02.162Z,6.70
2019-03-01T19:49:33.956Z,6.60
2019-03-01T19:52:05.148Z,6.70
2019-03-01T19:54:36.994Z,6.70
2019-03-01T19:57:08.134Z,6.70
2019-03-01T19:59:39.368Z,6.80
2019-03-01T20:02:10.525Z,6.80
2019-03-01T20:04:41.978Z,6.70
2019-03-01T20:07:16.032Z,6.70
2019-03-01T20:09:46.120Z,6.70
2019-03-01T20:12:18.345Z,6.70
2019-03-01T20:14:49.968Z,6.70
2019-03-01T20:17:21.028Z,6.80
2019-03-01T20:19:53.669Z,6.80
2019-03-01T20:22:25.170Z,6.80
2019-03-01T20:24:56.580Z,6.70
2019-03-01T20:27:27.720Z,6.80
2019-03-01T20:29:59.032Z,6.80
2019-03-01T20:32:30.130Z,6.80
2019-03-01T20:35:01.479Z,6.80
2019-03-01T20:37:33.702Z,6.70
2019-03-01T20:40:05.376Z,6.70
2019-03-01T20:42:36.796Z,6.60
2019-03-01T20:45:11.248Z,6.60
2019-03-01T20:47:42.482Z,6.50
2019-03-01T20:50:15.668Z,6.60
2019-03-01T20:52:47.048Z,6.60
2019-03-01T20:55:19.319Z,6.60
2019-03-01T20:57:50.374Z,6.50
2019-03-01T21:00:22.643Z,6.40
2019-03-01T21:02:54.717Z,6.40
2019-03-01T21:05:29.218Z,6.40
2019-03-01T21:07:58.929Z,6.40
2019-03-01T21:10:30.236Z,6.40
2019-03-01T21:13:01.388Z,6.30
2019-03-01T21:15:34.646Z,6.40
2019-03-01T21:18:05.461Z,6.40
2019-03-01T21:20:36.924Z,6.40
2019-03-01T21:23:07.992Z,6.40
2019-03-01T21:25:39.702Z,6.40
2019-03-01T21:28:11.902Z,6.40
2019-03-01T21:30:43.228Z,6.40
2019-03-01T21:33:14.388Z,6.40
2019-03-01T21:35:47.728Z,6.50
2019-03-01T21:38:18.468Z,6.50
2019-03-01T21:40:50.070Z,6.50
2019-03-01T21:43:21.182Z,6.50
2019-03-01T21:45:55.489Z,6.60
2019-03-01T21:48:26.714Z,6.60
2019-03-01T21:50:57.865Z,6.60
2019-03-01T21:53:28.992Z,6.50
2019-03-01T21:56:00.696Z,6.50
2019-03-01T21:58:33.950Z,6.50
2019-03-01T22:01:06.968Z,6.40
2019-03-01T22:03:38.316Z,6.40
2019-03-01T22:06:09.689Z,6.50
2019-03-01T22:08:40.792Z,6.50
2019-03-01T22:11:13.602Z,6.50
2019-03-01T22:13:45.100Z,6.50
2019-03-01T22:16:16.352Z,6.50
2019-03-01T22:18:48.590Z,6.50
2019-03-01T22:21:22.551Z,6.60
2019-03-01T22:23:52.751Z,6.50
2019-03-01T22:26:24.220Z,6.60
2019-03-01T22:28:55.352Z,6.60
2019-03-01T22:31:26.791Z,6.50
2019-03-01T22:33:57.949Z,6.50
2019-03-01T22:36:29.496Z,6.60
2019-03-01T22:39:00.586Z,6.50
2019-03-01T22:41:35.632Z,6.50
2019-03-01T22:44:06.380Z,6.60
2019-03-01T22:46:37.744Z,6.50
2019-03-01T22:49:08.807Z,6.60
2019-03-01T22:51:40.236Z,6.50
2019-03-01T22:54:11.296Z,6.50
2019-03-01T22:56:44.699Z,6.50
2019-03-01T22:59:15.596Z,6.40
2019-03-01T23:01:52.201Z,6.40
2019-03-01T23:04:26.596Z,6.40
2019-03-01T23:06:56.420Z,6.40
2019-03-01T23:09:27.552Z,6.50
2019-03-01T23:12:00.566Z,6.50
2019-03-01T23:14:31.903Z,6.40
2019-03-01T23:17:03.559Z,6.40
2019-03-01T23:19:34.680Z,6.40
2019-03-01T23:22:07.587Z,6.40
2019-03-01T23:24:38.836Z,6.50
2019-03-01T23:27:10.402Z,6.50
2019-03-01T23:29:41.620Z,6.40
2019-03-01T23:32:15.443Z,6.40
2019-03-01T23:34:46.208Z,6.30
2019-03-01T23:37:17.652Z,6.20
2019-03-01T23:39:48.875Z,6.10
2019-03-01T23:42:20.861Z,6.10
2019-03-01T23:44:53.233Z,6.10
2019-03-01T23:47:24.710Z,6.20
2019-03-01T23:49:59.310Z,6.10
2019-03-01T23:52:28.921Z,6.20
2019-03-01T23:55:00.268Z,6.20
2019-03-01T23:57:31.756Z,6.20
